sensor_id;sensor_type;location;lat;lon;timestamp;P1;durP1;ratioP1;P2;durP2;ratioP2
1777;SDS011;71547;50.146;8.174;2024-02-26T00:00:13;1.20;;;1.10;;
1777;SDS011;71547;50.146;8.174;2024-02-26T00:02:42;2.13;;;1.30;;
1777;SDS011;71547;50.146;8.174;2024-02-26T00:05:09;1.40;;;1.20;;
1777;SDS011;71547;50.146;8.174;2024-02-26T00:07:36;1.20;;;1.10;;
1777;SDS011;71547;50.146;8.174;2024-02-26T00:10:04;1.10;;;0.97;;
1777;SDS011;71547;50.146;8.174;2024-02-26T00:12:32;1.53;;;1.13;;
1777;SDS011;71547;50.146;8.174;2024-02-26T00:15:00;1.60;;;1.10;;
1777;SDS011;71547;50.146;8.174;2024-02-26T00:17:28;1.10;;;0.90;;
1777;SDS011;71547;50.146;8.174;2024-02-26T00:19:55;1.13;;;1.00;;
1777;SDS011;71547;50.146;8.174;2024-02-26T00:22:23;1.40;;;1.30;;
1777;SDS011;71547;50.146;8.174;2024-02-26T00:24:50;2.30;;;1.20;;
1777;SDS011;71547;50.146;8.174;2024-02-26T00:27:17;1.60;;;1.50;;
1777;SDS011;71547;50.146;8.174;2024-02-26T00:29:44;1.08;;;0.90;;
1777;SDS011;71547;50.146;8.174;2024-02-26T00:32:11;1.40;;;1.30;;
1777;SDS011;71547;50.146;8.174;2024-02-26T00:34:42;1.50;;;1.40;;
1777;SDS011;71547;50.146;8.174;2024-02-26T00:37:09;1.40;;;1.10;;
1777;SDS011;71547;50.146;8.174;2024-02-26T00:39:43;1.55;;;1.20;;
1777;SDS011;71547;50.146;8.174;2024-02-26T00:42:13;1.67;;;0.90;;
1777;SDS011;71547;50.146;8.174;2024-02-26T00:44:40;1.00;;;0.90;;
1777;SDS011;71547;50.146;8.174;2024-02-26T00:47:09;1.10;;;1.00;;
1777;SDS011;71547;50.146;8.174;2024-02-26T00:49:36;1.40;;;1.10;;
1777;SDS011;71547;50.146;8.174;2024-02-26T00:52:10;1.67;;;1.20;;
1777;SDS011;71547;50.146;8.174;2024-02-26T00:54:39;1.23;;;1.10;;
1777;SDS011;71547;50.146;8.174;2024-02-26T00:57:11;1.80;;;1.42;;
1777;SDS011;71547;50.146;8.174;2024-02-26T00:59:53;2.30;;;1.53;;
1777;SDS011;71547;50.146;8.174;2024-02-26T01:02:22;1.07;;;0.97;;
1777;SDS011;71547;50.146;8.174;2024-02-26T01:04:58;1.30;;;1.00;;
1777;SDS011;71547;50.146;8.174;2024-02-26T01:07:33;3.17;;;1.00;;
1777;SDS011;71547;50.146;8.174;2024-02-26T01:10:05;1.10;;;1.00;;
1777;SDS011;71547;50.146;8.174;2024-02-26T01:12:41;2.53;;;0.90;;
1777;SDS011;71547;50.146;8.174;2024-02-26T01:15:13;1.00;;;0.80;;
1777;SDS011;71547;50.146;8.174;2024-02-26T01:17:45;1.40;;;1.30;;
1777;SDS011;71547;50.146;8.174;2024-02-26T01:20:16;1.40;;;1.13;;
1777;SDS011;71547;50.146;8.174;2024-02-26T01:22:50;1.10;;;1.00;;
1777;SDS011;71547;50.146;8.174;2024-02-26T01:25:24;1.30;;;1.17;;
1777;SDS011;71547;50.146;8.174;2024-02-26T01:27:51;1.00;;;0.90;;
1777;SDS011;71547;50.146;8.174;2024-02-26T01:30:29;1.13;;;1.03;;
1777;SDS011;71547;50.146;8.174;2024-02-26T01:32:58;1.40;;;1.20;;
1777;SDS011;71547;50.146;8.174;2024-02-26T01:35:35;1.17;;;1.07;;
1777;SDS011;71547;50.146;8.174;2024-02-26T01:38:12;1.50;;;1.17;;
1777;SDS011;71547;50.146;8.174;2024-02-26T01:40:47;1.30;;;1.20;;
1777;SDS011;71547;50.146;8.174;2024-02-26T01:43:17;1.00;;;0.90;;
1777;SDS011;71547;50.146;8.174;2024-02-26T01:45:50;2.37;;;1.10;;
1777;SDS011;71547;50.146;8.174;2024-02-26T01:48:17;1.38;;;1.27;;
1777;SDS011;71547;50.146;8.174;2024-02-26T01:50:47;1.20;;;1.10;;
1777;SDS011;71547;50.146;8.174;2024-02-26T01:53:16;2.80;;;1.43;;
1777;SDS011;71547;50.146;8.174;2024-02-26T01:55:48;1.27;;;1.17;;
1777;SDS011;71547;50.146;8.174;2024-02-26T01:58:15;2.23;;;1.23;;
1777;SDS011;71547;50.146;8.174;2024-02-26T02:00:57;1.70;;;1.60;;
1777;SDS011;71547;50.146;8.174;2024-02-26T02:03:25;1.47;;;1.33;;
1777;SDS011;71547;50.146;8.174;2024-02-26T02:05:57;1.40;;;1.30;;
1777;SDS011;71547;50.146;8.174;2024-02-26T02:08:25;1.90;;;1.70;;
1777;SDS011;71547;50.146;8.174;2024-02-26T02:10:56;1.60;;;1.37;;
1777;SDS011;71547;50.146;8.174;2024-02-26T02:13:31;1.60;;;1.50;;
1777;SDS011;71547;50.146;8.174;2024-02-26T02:16:03;1.60;;;1.50;;
1777;SDS011;71547;50.146;8.174;2024-02-26T02:18:33;1.55;;;1.45;;
1777;SDS011;71547;50.146;8.174;2024-02-26T02:21:06;1.35;;;1.25;;
1777;SDS011;71547;50.146;8.174;2024-02-26T02:23:45;1.70;;;1.30;;
1777;SDS011;71547;50.146;8.174;2024-02-26T02:26:26;2.67;;;1.60;;
1777;SDS011;71547;50.146;8.174;2024-02-26T02:28:57;1.35;;;1.25;;
1777;SDS011;71547;50.146;8.174;2024-02-26T02:31:43;1.50;;;1.40;;
1777;SDS011;71547;50.146;8.174;2024-02-26T02:34:17;1.30;;;1.20;;
1777;SDS011;71547;50.146;8.174;2024-02-26T02:36:51;1.35;;;1.20;;
1777;SDS011;71547;50.146;8.174;2024-02-26T02:39:20;1.67;;;1.58;;
1777;SDS011;71547;50.146;8.174;2024-02-26T02:41:54;1.40;;;1.20;;
1777;SDS011;71547;50.146;8.174;2024-02-26T02:44:28;1.50;;;1.40;;
1777;SDS011;71547;50.146;8.174;2024-02-26T02:46:59;1.23;;;1.13;;
1777;SDS011;71547;50.146;8.174;2024-02-26T02:49:36;3.63;;;1.47;;
1777;SDS011;71547;50.146;8.174;2024-02-26T02:52:09;2.53;;;1.10;;
1777;SDS011;71547;50.146;8.174;2024-02-26T02:54:42;1.43;;;1.33;;
1777;SDS011;71547;50.146;8.174;2024-02-26T02:57:23;2.27;;;1.70;;
1777;SDS011;71547;50.146;8.174;2024-02-26T03:00:00;1.93;;;1.40;;
1777;SDS011;71547;50.146;8.174;2024-02-26T03:02:30;1.97;;;1.40;;
1777;SDS011;71547;50.146;8.174;2024-02-26T03:05:05;1.60;;;1.50;;
1777;SDS011;71547;50.146;8.174;2024-02-26T03:07:37;1.60;;;1.50;;
1777;SDS011;71547;50.146;8.174;2024-02-26T03:10:26;1.80;;;1.27;;
1777;SDS011;71547;50.146;8.174;2024-02-26T03:13:05;1.70;;;1.50;;
1777;SDS011;71547;50.146;8.174;2024-02-26T03:15:47;1.93;;;1.53;;
1777;SDS011;71547;50.146;8.174;2024-02-26T03:18:15;1.67;;;1.57;;
1777;SDS011;71547;50.146;8.174;2024-02-26T03:20:48;1.53;;;1.40;;
1777;SDS011;71547;50.146;8.174;2024-02-26T03:23:19;2.38;;;1.80;;
1777;SDS011;71547;50.146;8.174;2024-02-26T03:25:58;2.80;;;1.77;;
1777;SDS011;71547;50.146;8.174;2024-02-26T03:28:41;2.13;;;1.77;;
1777;SDS011;71547;50.146;8.174;2024-02-26T03:31:11;1.60;;;1.50;;
1777;SDS011;71547;50.146;8.174;2024-02-26T03:33:47;1.50;;;1.40;;
1777;SDS011;71547;50.146;8.174;2024-02-26T03:36:36;1.60;;;1.50;;
1777;SDS011;71547;50.146;8.174;2024-02-26T03:39:07;1.65;;;1.55;;
1777;SDS011;71547;50.146;8.174;2024-02-26T03:41:49;5.35;;;2.17;;
1777;SDS011;71547;50.146;8.174;2024-02-26T03:44:25;1.55;;;1.33;;
1777;SDS011;71547;50.146;8.174;2024-02-26T03:46:52;1.40;;;1.30;;
1777;SDS011;71547;50.146;8.174;2024-02-26T03:49:26;1.70;;;1.60;;
1777;SDS011;71547;50.146;8.174;2024-02-26T03:52:04;2.05;;;1.88;;
1777;SDS011;71547;50.146;8.174;2024-02-26T03:54:41;2.10;;;1.75;;
1777;SDS011;71547;50.146;8.174;2024-02-26T03:57:08;2.28;;;2.00;;
1777;SDS011;71547;50.146;8.174;2024-02-26T03:59:37;2.55;;;1.70;;
1777;SDS011;71547;50.146;8.174;2024-02-26T04:02:18;2.03;;;1.80;;
1777;SDS011;71547;50.146;8.174;2024-02-26T04:04:46;4.05;;;1.70;;
1777;SDS011;71547;50.146;8.174;2024-02-26T04:07:19;1.92;;;1.83;;
1777;SDS011;71547;50.146;8.174;2024-02-26T04:09:59;2.38;;;2.08;;
1777;SDS011;71547;50.146;8.174;2024-02-26T04:12:33;1.80;;;1.55;;
1777;SDS011;71547;50.146;8.174;2024-02-26T04:15:13;3.47;;;1.85;;
1777;SDS011;71547;50.146;8.174;2024-02-26T04:17:50;2.40;;;2.10;;
1777;SDS011;71547;50.146;8.174;2024-02-26T04:20:35;2.20;;;1.88;;
1777;SDS011;71547;50.146;8.174;2024-02-26T04:23:14;2.25;;;2.05;;
1777;SDS011;71547;50.146;8.174;2024-02-26T04:25:46;2.25;;;2.10;;
1777;SDS011;71547;50.146;8.174;2024-02-26T04:28:15;2.22;;;2.05;;
1777;SDS011;71547;50.146;8.174;2024-02-26T04:30:44;2.00;;;1.80;;
1777;SDS011;71547;50.146;8.174;2024-02-26T04:33:15;2.20;;;2.00;;
1777;SDS011;71547;50.146;8.174;2024-02-26T04:35:44;3.90;;;1.70;;
1777;SDS011;71547;50.146;8.174;2024-02-26T04:38:16;3.80;;;2.10;;
1777;SDS011;71547;50.146;8.174;2024-02-26T04:40:43;2.28;;;1.83;;
1777;SDS011;71547;50.146;8.174;2024-02-26T04:43:15;2.00;;;1.90;;
1777;SDS011;71547;50.146;8.174;2024-02-26T04:45:43;1.88;;;1.77;;
1777;SDS011;71547;50.146;8.174;2024-02-26T04:48:17;2.95;;;1.85;;
1777;SDS011;71547;50.146;8.174;2024-02-26T04:50:51;1.80;;;1.70;;
1777;SDS011;71547;50.146;8.174;2024-02-26T04:53:18;1.58;;;1.48;;
1777;SDS011;71547;50.146;8.174;2024-02-26T04:55:48;1.50;;;1.40;;
1777;SDS011;71547;50.146;8.174;2024-02-26T04:58:18;1.75;;;1.65;;
1777;SDS011;71547;50.146;8.174;2024-02-26T05:00:46;1.75;;;1.65;;
1777;SDS011;71547;50.146;8.174;2024-02-26T05:03:16;1.90;;;1.80;;
1777;SDS011;71547;50.146;8.174;2024-02-26T05:05:48;2.80;;;1.90;;
1777;SDS011;71547;50.146;8.174;2024-02-26T05:08:15;2.00;;;1.90;;
1777;SDS011;71547;50.146;8.174;2024-02-26T05:10:44;1.55;;;1.45;;
1777;SDS011;71547;50.146;8.174;2024-02-26T05:13:13;1.58;;;1.48;;
1777;SDS011;71547;50.146;8.174;2024-02-26T05:15:41;1.98;;;1.83;;
1777;SDS011;71547;50.146;8.174;2024-02-26T05:18:13;1.73;;;1.63;;
1777;SDS011;71547;50.146;8.174;2024-02-26T05:20:40;2.08;;;1.70;;
1777;SDS011;71547;50.146;8.174;2024-02-26T05:23:20;2.00;;;1.90;;
1777;SDS011;71547;50.146;8.174;2024-02-26T05:25:53;2.60;;;2.40;;
1777;SDS011;71547;50.146;8.174;2024-02-26T05:28:26;2.30;;;2.10;;
1777;SDS011;71547;50.146;8.174;2024-02-26T05:30:56;2.25;;;2.15;;
1777;SDS011;71547;50.146;8.174;2024-02-26T05:33:32;2.53;;;2.10;;
1777;SDS011;71547;50.146;8.174;2024-02-26T05:36:01;4.30;;;2.13;;
1777;SDS011;71547;50.146;8.174;2024-02-26T05:38:30;2.05;;;1.90;;
1777;SDS011;71547;50.146;8.174;2024-02-26T05:41:03;2.08;;;1.90;;
1777;SDS011;71547;50.146;8.174;2024-02-26T05:43:31;1.80;;;1.70;;
1777;SDS011;71547;50.146;8.174;2024-02-26T05:45:58;2.08;;;1.98;;
1777;SDS011;71547;50.146;8.174;2024-02-26T05:48:25;3.00;;;1.60;;
1777;SDS011;71547;50.146;8.174;2024-02-26T05:50:56;2.47;;;1.95;;
1777;SDS011;71547;50.146;8.174;2024-02-26T05:53:23;1.67;;;1.58;;
1777;SDS011;71547;50.146;8.174;2024-02-26T05:55:50;1.90;;;1.80;;
1777;SDS011;71547;50.146;8.174;2024-02-26T05:58:21;1.70;;;1.60;;
1777;SDS011;71547;50.146;8.174;2024-02-26T06:00:51;2.03;;;1.92;;
1777;SDS011;71547;50.146;8.174;2024-02-26T06:03:22;1.80;;;1.70;;
1777;SDS011;71547;50.146;8.174;2024-02-26T06:05:49;2.10;;;2.00;;
1777;SDS011;71547;50.146;8.174;2024-02-26T06:08:16;1.80;;;1.70;;
1777;SDS011;71547;50.146;8.174;2024-02-26T06:10:43;2.20;;;1.70;;
1777;SDS011;71547;50.146;8.174;2024-02-26T06:13:10;1.95;;;1.80;;
1777;SDS011;71547;50.146;8.174;2024-02-26T06:15:41;1.92;;;1.83;;
1777;SDS011;71547;50.146;8.174;2024-02-26T06:18:10;1.80;;;1.70;;
1777;SDS011;71547;50.146;8.174;2024-02-26T06:20:41;4.38;;;2.00;;
1777;SDS011;71547;50.146;8.174;2024-02-26T06:23:13;1.95;;;1.85;;
1777;SDS011;71547;50.146;8.174;2024-02-26T06:25:43;2.00;;;1.70;;
1777;SDS011;71547;50.146;8.174;2024-02-26T06:28:12;1.90;;;1.80;;
1777;SDS011;71547;50.146;8.174;2024-02-26T06:30:41;1.80;;;1.70;;
1777;SDS011;71547;50.146;8.174;2024-02-26T06:33:08;1.90;;;1.80;;
1777;SDS011;71547;50.146;8.174;2024-02-26T06:35:37;2.10;;;2.00;;
1777;SDS011;71547;50.146;8.174;2024-02-26T06:38:04;1.80;;;1.70;;
1777;SDS011;71547;50.146;8.174;2024-02-26T06:40:34;3.75;;;1.95;;
1777;SDS011;71547;50.146;8.174;2024-02-26T06:43:01;1.73;;;1.60;;
1777;SDS011;71547;50.146;8.174;2024-02-26T06:45:33;2.10;;;2.00;;
1777;SDS011;71547;50.146;8.174;2024-02-26T06:48:02;1.88;;;1.67;;
1777;SDS011;71547;50.146;8.174;2024-02-26T06:50:35;1.90;;;1.80;;
1777;SDS011;71547;50.146;8.174;2024-02-26T06:53:07;2.30;;;2.08;;
1777;SDS011;71547;50.146;8.174;2024-02-26T06:55:46;2.28;;;2.10;;
1777;SDS011;71547;50.146;8.174;2024-02-26T06:58:19;2.88;;;2.22;;
1777;SDS011;71547;50.146;8.174;2024-02-26T07:01:01;2.63;;;2.42;;
1777;SDS011;71547;50.146;8.174;2024-02-26T07:03:29;2.70;;;2.50;;
1777;SDS011;71547;50.146;8.174;2024-02-26T07:05:57;3.03;;;2.53;;
1777;SDS011;71547;50.146;8.174;2024-02-26T07:08:24;2.72;;;2.28;;
1777;SDS011;71547;50.146;8.174;2024-02-26T07:10:54;2.35;;;2.15;;
1777;SDS011;71547;50.146;8.174;2024-02-26T07:13:26;2.53;;;2.33;;
1777;SDS011;71547;50.146;8.174;2024-02-26T07:15:53;2.47;;;2.28;;
1777;SDS011;71547;50.146;8.174;2024-02-26T07:18:23;2.53;;;2.33;;
1777;SDS011;71547;50.146;8.174;2024-02-26T07:20:52;2.63;;;2.20;;
1777;SDS011;71547;50.146;8.174;2024-02-26T07:23:22;2.17;;;2.08;;
1777;SDS011;71547;50.146;8.174;2024-02-26T07:25:51;2.70;;;2.08;;
1777;SDS011;71547;50.146;8.174;2024-02-26T07:28:21;3.15;;;2.95;;
1777;SDS011;71547;50.146;8.174;2024-02-26T07:30:50;2.70;;;2.20;;
1777;SDS011;71547;50.146;8.174;2024-02-26T07:33:19;2.53;;;2.33;;
1777;SDS011;71547;50.146;8.174;2024-02-26T07:35:46;2.55;;;2.35;;
1777;SDS011;71547;50.146;8.174;2024-02-26T07:38:15;3.15;;;2.85;;
1777;SDS011;71547;50.146;8.174;2024-02-26T07:40:58;3.22;;;2.95;;
1777;SDS011;71547;50.146;8.174;2024-02-26T07:43:31;3.10;;;2.90;;
1777;SDS011;71547;50.146;8.174;2024-02-26T07:45:58;3.08;;;2.83;;
1777;SDS011;71547;50.146;8.174;2024-02-26T07:48:34;2.78;;;2.58;;
1777;SDS011;71547;50.146;8.174;2024-02-26T07:51:06;4.05;;;3.75;;
1777;SDS011;71547;50.146;8.174;2024-02-26T07:53:43;4.55;;;3.58;;
1777;SDS011;71547;50.146;8.174;2024-02-26T07:56:14;3.72;;;3.35;;
1777;SDS011;71547;50.146;8.174;2024-02-26T07:58:52;3.90;;;3.50;;
1777;SDS011;71547;50.146;8.174;2024-02-26T08:01:22;3.78;;;3.47;;
1777;SDS011;71547;50.146;8.174;2024-02-26T08:03:50;3.75;;;3.25;;
1777;SDS011;71547;50.146;8.174;2024-02-26T08:06:17;3.80;;;3.50;;
1777;SDS011;71547;50.146;8.174;2024-02-26T08:08:53;2.87;;;2.63;;
1777;SDS011;71547;50.146;8.174;2024-02-26T08:11:25;3.17;;;2.90;;
1777;SDS011;71547;50.146;8.174;2024-02-26T08:13:54;4.65;;;3.20;;
1777;SDS011;71547;50.146;8.174;2024-02-26T08:16:21;2.85;;;2.42;;
1777;SDS011;71547;50.146;8.174;2024-02-26T08:18:59;3.22;;;2.95;;
1777;SDS011;71547;50.146;8.174;2024-02-26T08:21:26;3.13;;;2.85;;
1777;SDS011;71547;50.146;8.174;2024-02-26T08:23:56;3.00;;;2.70;;
1777;SDS011;71547;50.146;8.174;2024-02-26T08:26:24;3.53;;;3.07;;
1777;SDS011;71547;50.146;8.174;2024-02-26T08:28:51;2.58;;;2.38;;
1777;SDS011;71547;50.146;8.174;2024-02-26T08:31:20;5.20;;;3.03;;
1777;SDS011;71547;50.146;8.174;2024-02-26T08:33:55;3.00;;;2.72;;
1777;SDS011;71547;50.146;8.174;2024-02-26T08:36:27;3.70;;;2.88;;
1777;SDS011;71547;50.146;8.174;2024-02-26T08:38:57;2.90;;;2.70;;
1777;SDS011;71547;50.146;8.174;2024-02-26T08:41:25;2.70;;;2.50;;
1777;SDS011;71547;50.146;8.174;2024-02-26T08:43:57;2.80;;;2.60;;
1777;SDS011;71547;50.146;8.174;2024-02-26T08:46:24;3.97;;;2.45;;
1777;SDS011;71547;50.146;8.174;2024-02-26T08:49:00;3.13;;;2.60;;
1777;SDS011;71547;50.146;8.174;2024-02-26T08:51:30;2.90;;;2.70;;
1777;SDS011;71547;50.146;8.174;2024-02-26T08:53:58;3.00;;;2.42;;
1777;SDS011;71547;50.146;8.174;2024-02-26T08:56:25;2.60;;;2.38;;
1777;SDS011;71547;50.146;8.174;2024-02-26T08:59:00;3.80;;;2.50;;
1777;SDS011;71547;50.146;8.174;2024-02-26T09:01:32;2.70;;;2.50;;
1777;SDS011;71547;50.146;8.174;2024-02-26T09:04:02;2.97;;;2.77;;
1777;SDS011;71547;50.146;8.174;2024-02-26T09:06:32;2.65;;;2.45;;
1777;SDS011;71547;50.146;8.174;2024-02-26T09:09:06;2.88;;;2.67;;
1777;SDS011;71547;50.146;8.174;2024-02-26T09:11:33;2.70;;;2.55;;
1777;SDS011;71547;50.146;8.174;2024-02-26T09:14:00;2.70;;;2.43;;
1777;SDS011;71547;50.146;8.174;2024-02-26T09:16:29;2.60;;;2.40;;
1777;SDS011;71547;50.146;8.174;2024-02-26T09:18:56;2.72;;;2.53;;
1777;SDS011;71547;50.146;8.174;2024-02-26T09:21:24;3.03;;;2.50;;
1777;SDS011;71547;50.146;8.174;2024-02-26T09:23:52;2.63;;;2.42;;
1777;SDS011;71547;50.146;8.174;2024-02-26T09:26:20;4.00;;;2.80;;
1777;SDS011;71547;50.146;8.174;2024-02-26T09:28:48;2.97;;;2.78;;
1777;SDS011;71547;50.146;8.174;2024-02-26T09:31:15;2.67;;;2.47;;
1777;SDS011;71547;50.146;8.174;2024-02-26T09:33:44;3.22;;;2.95;;
1777;SDS011;71547;50.146;8.174;2024-02-26T09:36:12;2.70;;;2.50;;
1777;SDS011;71547;50.146;8.174;2024-02-26T09:38:40;3.08;;;2.88;;
1777;SDS011;71547;50.146;8.174;2024-02-26T09:41:23;3.00;;;2.80;;
1777;SDS011;71547;50.146;8.174;2024-02-26T09:43:50;2.25;;;2.05;;
1777;SDS011;71547;50.146;8.174;2024-02-26T09:46:23;2.40;;;2.20;;
1777;SDS011;71547;50.146;8.174;2024-02-26T09:48:51;3.08;;;2.78;;
1777;SDS011;71547;50.146;8.174;2024-02-26T09:51:20;2.65;;;2.45;;
1777;SDS011;71547;50.146;8.174;2024-02-26T09:53:52;2.33;;;2.13;;
1777;SDS011;71547;50.146;8.174;2024-02-26T09:56:19;2.37;;;2.17;;
1777;SDS011;71547;50.146;8.174;2024-02-26T09:58:49;2.60;;;2.40;;
1777;SDS011;71547;50.146;8.174;2024-02-26T10:01:20;2.65;;;2.45;;
1777;SDS011;71547;50.146;8.174;2024-02-26T10:03:52;2.85;;;2.65;;
1777;SDS011;71547;50.146;8.174;2024-02-26T10:06:22;2.80;;;2.28;;
1777;SDS011;71547;50.146;8.174;2024-02-26T10:08:50;4.57;;;2.45;;
1777;SDS011;71547;50.146;8.174;2024-02-26T10:11:19;2.40;;;2.20;;
1777;SDS011;71547;50.146;8.174;2024-02-26T10:13:49;2.73;;;2.53;;
1777;SDS011;71547;50.146;8.174;2024-02-26T10:16:16;2.20;;;2.10;;
1777;SDS011;71547;50.146;8.174;2024-02-26T10:18:47;2.27;;;2.07;;
1777;SDS011;71547;50.146;8.174;2024-02-26T10:21:17;2.00;;;1.90;;
1777;SDS011;71547;50.146;8.174;2024-02-26T10:23:45;2.30;;;1.97;;
1777;SDS011;71547;50.146;8.174;2024-02-26T10:26:14;2.20;;;2.10;;
1777;SDS011;71547;50.146;8.174;2024-02-26T10:28:43;1.90;;;1.80;;
1777;SDS011;71547;50.146;8.174;2024-02-26T10:31:13;2.63;;;2.37;;
1777;SDS011;71547;50.146;8.174;2024-02-26T10:33:42;2.30;;;2.10;;
1777;SDS011;71547;50.146;8.174;2024-02-26T10:36:11;3.10;;;1.97;;
1777;SDS011;71547;50.146;8.174;2024-02-26T10:38:39;4.43;;;1.90;;
1777;SDS011;71547;50.146;8.174;2024-02-26T10:41:06;1.93;;;1.70;;
1777;SDS011;71547;50.146;8.174;2024-02-26T10:43:34;2.10;;;2.00;;
1777;SDS011;71547;50.146;8.174;2024-02-26T10:46:03;1.77;;;1.67;;
1777;SDS011;71547;50.146;8.174;2024-02-26T10:48:32;1.77;;;1.67;;
1777;SDS011;71547;50.146;8.174;2024-02-26T10:50:59;2.50;;;1.80;;
1777;SDS011;71547;50.146;8.174;2024-02-26T10:53:28;1.93;;;1.67;;
1777;SDS011;71547;50.146;8.174;2024-02-26T10:55:58;1.70;;;1.50;;
1777;SDS011;71547;50.146;8.174;2024-02-26T10:58:31;2.00;;;1.90;;
1777;SDS011;71547;50.146;8.174;2024-02-26T11:00:59;1.97;;;1.87;;
1777;SDS011;71547;50.146;8.174;2024-02-26T11:03:28;2.40;;;2.20;;
1777;SDS011;71547;50.146;8.174;2024-02-26T11:06:02;3.17;;;2.23;;
1777;SDS011;71547;50.146;8.174;2024-02-26T11:08:31;2.03;;;1.93;;
1777;SDS011;71547;50.146;8.174;2024-02-26T11:10:58;2.53;;;2.33;;
1777;SDS011;71547;50.146;8.174;2024-02-26T11:13:27;2.10;;;2.00;;
1777;SDS011;71547;50.146;8.174;2024-02-26T11:16:00;2.20;;;2.10;;
1777;SDS011;71547;50.146;8.174;2024-02-26T11:18:29;2.77;;;2.57;;
1777;SDS011;71547;50.146;8.174;2024-02-26T11:20:58;2.97;;;2.47;;
1777;SDS011;71547;50.146;8.174;2024-02-26T11:23:27;2.80;;;2.30;;
1777;SDS011;71547;50.146;8.174;2024-02-26T11:25:54;2.53;;;2.33;;
1777;SDS011;71547;50.146;8.174;2024-02-26T11:28:26;2.10;;;2.00;;
1777;SDS011;71547;50.146;8.174;2024-02-26T11:30:54;2.30;;;2.00;;
1777;SDS011;71547;50.146;8.174;2024-02-26T11:33:24;1.90;;;1.80;;
1777;SDS011;71547;50.146;8.174;2024-02-26T11:35:54;3.03;;;2.37;;
1777;SDS011;71547;50.146;8.174;2024-02-26T11:38:23;2.50;;;2.30;;
1777;SDS011;71547;50.146;8.174;2024-02-26T11:40:52;2.67;;;2.47;;
1777;SDS011;71547;50.146;8.174;2024-02-26T11:43:22;2.17;;;1.97;;
1777;SDS011;71547;50.146;8.174;2024-02-26T11:45:51;2.60;;;2.40;;
1777;SDS011;71547;50.146;8.174;2024-02-26T11:48:22;3.43;;;2.13;;
1777;SDS011;71547;50.146;8.174;2024-02-26T11:50:51;2.20;;;2.00;;
1777;SDS011;71547;50.146;8.174;2024-02-26T11:53:22;1.80;;;1.70;;
1777;SDS011;71547;50.146;8.174;2024-02-26T11:58:53;2.33;;;2.13;;
1777;SDS011;71547;50.146;8.174;2024-02-26T12:01:37;3.23;;;2.23;;
1777;SDS011;71547;50.146;8.174;2024-02-26T12:04:17;2.43;;;2.23;;
1777;SDS011;71547;50.146;8.174;2024-02-26T12:06:54;2.23;;;2.03;;
1777;SDS011;71547;50.146;8.174;2024-02-26T12:09:37;2.30;;;2.10;;
1777;SDS011;71547;50.146;8.174;2024-02-26T12:12:05;2.20;;;1.97;;
1777;SDS011;71547;50.146;8.174;2024-02-26T12:14:35;2.10;;;1.90;;
1777;SDS011;71547;50.146;8.174;2024-02-26T12:17:05;3.00;;;2.20;;
1777;SDS011;71547;50.146;8.174;2024-02-26T12:19:35;2.00;;;1.80;;
1777;SDS011;71547;50.146;8.174;2024-02-26T12:22:09;1.60;;;1.50;;
1777;SDS011;71547;50.146;8.174;2024-02-26T12:24:40;2.70;;;1.93;;
1777;SDS011;71547;50.146;8.174;2024-02-26T12:27:07;2.60;;;2.40;;
1777;SDS011;71547;50.146;8.174;2024-02-26T12:29:35;2.40;;;2.20;;
1777;SDS011;71547;50.146;8.174;2024-02-26T12:32:02;3.20;;;2.90;;
1777;SDS011;71547;50.146;8.174;2024-02-26T12:34:33;3.17;;;2.97;;
1777;SDS011;71547;50.146;8.174;2024-02-26T12:37:03;2.37;;;2.23;;
1777;SDS011;71547;50.146;8.174;2024-02-26T12:39:32;2.47;;;2.27;;
1777;SDS011;71547;50.146;8.174;2024-02-26T12:41:59;2.97;;;2.67;;
1777;SDS011;71547;50.146;8.174;2024-02-26T12:44:27;2.70;;;2.50;;
1777;SDS011;71547;50.146;8.174;2024-02-26T12:46:59;2.97;;;2.67;;
1777;SDS011;71547;50.146;8.174;2024-02-26T12:49:27;2.83;;;2.63;;
1777;SDS011;71547;50.146;8.174;2024-02-26T12:51:54;2.40;;;2.27;;
1777;SDS011;71547;50.146;8.174;2024-02-26T12:54:27;2.67;;;2.43;;
1777;SDS011;71547;50.146;8.174;2024-02-26T12:56:56;2.77;;;2.67;;
1777;SDS011;71547;50.146;8.174;2024-02-26T12:59:24;3.13;;;2.80;;
1777;SDS011;71547;50.146;8.174;2024-02-26T13:01:51;3.77;;;2.30;;
1777;SDS011;71547;50.146;8.174;2024-02-26T13:04:19;2.90;;;2.70;;
1777;SDS011;71547;50.146;8.174;2024-02-26T13:06:46;2.50;;;2.30;;
1777;SDS011;71547;50.146;8.174;2024-02-26T13:09:13;2.50;;;2.30;;
1777;SDS011;71547;50.146;8.174;2024-02-26T13:11:41;2.30;;;2.10;;
1777;SDS011;71547;50.146;8.174;2024-02-26T13:14:09;3.57;;;2.03;;
1777;SDS011;71547;50.146;8.174;2024-02-26T13:16:54;2.80;;;2.60;;
1777;SDS011;71547;50.146;8.174;2024-02-26T13:19:21;2.13;;;2.03;;
1777;SDS011;71547;50.146;8.174;2024-02-26T13:21:49;2.43;;;2.10;;
1777;SDS011;71547;50.146;8.174;2024-02-26T13:24:20;1.70;;;1.60;;
1777;SDS011;71547;50.146;8.174;2024-02-26T13:26:53;3.40;;;2.10;;
1777;SDS011;71547;50.146;8.174;2024-02-26T13:29:22;1.67;;;1.57;;
1777;SDS011;71547;50.146;8.174;2024-02-26T13:31:55;1.63;;;1.53;;
1777;SDS011;71547;50.146;8.174;2024-02-26T13:34:23;3.10;;;2.33;;
1777;SDS011;71547;50.146;8.174;2024-02-26T13:36:53;2.40;;;2.20;;
1777;SDS011;71547;50.146;8.174;2024-02-26T13:39:22;2.93;;;1.50;;
1777;SDS011;71547;50.146;8.174;2024-02-26T13:41:50;1.97;;;1.50;;
1777;SDS011;71547;50.146;8.174;2024-02-26T13:44:17;2.77;;;1.97;;
1777;SDS011;71547;50.146;8.174;2024-02-26T13:46:47;1.73;;;1.63;;
1777;SDS011;71547;50.146;8.174;2024-02-26T13:49:15;1.60;;;1.50;;
1777;SDS011;71547;50.146;8.174;2024-02-26T13:51:42;2.27;;;1.90;;
1777;SDS011;71547;50.146;8.174;2024-02-26T13:54:10;1.77;;;1.67;;
1777;SDS011;71547;50.146;8.174;2024-02-26T13:56:37;1.73;;;1.63;;
1777;SDS011;71547;50.146;8.174;2024-02-26T13:59:04;2.43;;;1.70;;
1777;SDS011;71547;50.146;8.174;2024-02-26T14:01:32;1.50;;;1.40;;
1777;SDS011;71547;50.146;8.174;2024-02-26T14:04:01;2.00;;;1.80;;
1777;SDS011;71547;50.146;8.174;2024-02-26T14:06:30;2.37;;;1.90;;
1777;SDS011;71547;50.146;8.174;2024-02-26T14:08:58;2.00;;;1.87;;
1777;SDS011;71547;50.146;8.174;2024-02-26T14:11:26;4.80;;;2.27;;
1777;SDS011;71547;50.146;8.174;2024-02-26T14:13:55;2.10;;;1.90;;
1777;SDS011;71547;50.146;8.174;2024-02-26T14:16:22;2.23;;;2.03;;
1777;SDS011;71547;50.146;8.174;2024-02-26T14:18:52;2.03;;;1.83;;
1777;SDS011;71547;50.146;8.174;2024-02-26T14:21:20;2.20;;;1.60;;
1777;SDS011;71547;50.146;8.174;2024-02-26T14:23:48;2.07;;;1.63;;
1777;SDS011;71547;50.146;8.174;2024-02-26T14:26:15;2.33;;;2.13;;
1777;SDS011;71547;50.146;8.174;2024-02-26T14:28:42;2.20;;;2.00;;
1777;SDS011;71547;50.146;8.174;2024-02-26T14:31:09;2.33;;;2.00;;
1777;SDS011;71547;50.146;8.174;2024-02-26T14:33:37;1.90;;;1.80;;
1777;SDS011;71547;50.146;8.174;2024-02-26T14:36:06;2.23;;;1.80;;
1777;SDS011;71547;50.146;8.174;2024-02-26T14:38:35;1.70;;;1.60;;
1777;SDS011;71547;50.146;8.174;2024-02-26T14:41:02;1.90;;;1.80;;
1777;SDS011;71547;50.146;8.174;2024-02-26T14:43:30;1.73;;;1.63;;
1777;SDS011;71547;50.146;8.174;2024-02-26T14:45:58;1.70;;;1.60;;
1777;SDS011;71547;50.146;8.174;2024-02-26T14:48:25;1.73;;;1.63;;
1777;SDS011;71547;50.146;8.174;2024-02-26T14:50:53;1.80;;;1.70;;
1777;SDS011;71547;50.146;8.174;2024-02-26T14:53:20;2.17;;;2.07;;
1777;SDS011;71547;50.146;8.174;2024-02-26T14:55:49;2.50;;;1.83;;
1777;SDS011;71547;50.146;8.174;2024-02-26T14:58:16;2.40;;;2.20;;
1777;SDS011;71547;50.146;8.174;2024-02-26T15:00:44;2.10;;;1.87;;
1777;SDS011;71547;50.146;8.174;2024-02-26T15:03:11;1.60;;;1.50;;
1777;SDS011;71547;50.146;8.174;2024-02-26T15:05:38;2.30;;;1.90;;
1777;SDS011;71547;50.146;8.174;2024-02-26T15:08:05;2.00;;;1.83;;
1777;SDS011;71547;50.146;8.174;2024-02-26T15:10:35;1.70;;;1.60;;
1777;SDS011;71547;50.146;8.174;2024-02-26T15:13:04;2.60;;;2.40;;
1777;SDS011;71547;50.146;8.174;2024-02-26T15:15:34;2.27;;;2.07;;
1777;SDS011;71547;50.146;8.174;2024-02-26T15:18:06;2.27;;;2.17;;
1777;SDS011;71547;50.146;8.174;2024-02-26T15:20:34;2.27;;;2.10;;
1777;SDS011;71547;50.146;8.174;2024-02-26T15:23:02;2.30;;;2.10;;